sensor_id;sensor_type;location;lat;lon;timestamp;temperature;humidity
47336;DHT22;33068;51.990;5.926;2023-03-14T00:01:43;11.80;99.90
47336;DHT22;33068;51.990;5.926;2023-03-14T00:04:10;11.80;99.90
47336;DHT22;33068;51.990;5.926;2023-03-14T00:06:37;11.80;99.90
47336;DHT22;33068;51.990;5.926;2023-03-14T00:09:05;11.80;99.90
47336;DHT22;33068;51.990;5.926;2023-03-14T00:11:32;11.80;99.90
47336;DHT22;33068;51.990;5.926;2023-03-14T00:13:59;11.80;99.90
47336;DHT22;33068;51.990;5.926;2023-03-14T00:16:26;11.80;99.90
47336;DHT22;33068;51.990;5.926;2023-03-14T00:18:55;11.80;99.90
47336;DHT22;33068;51.990;5.926;2023-03-14T00:21:22;11.80;99.90
47336;DHT22;33068;51.990;5.926;2023-03-14T00:23:49;11.80;99.90
47336;DHT22;33068;51.990;5.926;2023-03-14T00:26:18;11.70;99.90
47336;DHT22;33068;51.990;5.926;2023-03-14T00:28:46;11.60;99.90
47336;DHT22;33068;51.990;5.926;2023-03-14T00:31:17;11.50;99.90
47336;DHT22;33068;51.990;5.926;2023-03-14T00:33:45;11.40;99.90
47336;DHT22;33068;51.990;5.926;2023-03-14T00:36:14;11.30;99.90
47336;DHT22;33068;51.990;5.926;2023-03-14T00:38:43;11.20;99.90
47336;DHT22;33068;51.990;5.926;2023-03-14T00:41:13;11.10;99.90
47336;DHT22;33068;51.990;5.926;2023-03-14T00:43:41;11.00;99.90
47336;DHT22;33068;51.990;5.926;2023-03-14T00:46:08;11.00;99.90
47336;DHT22;33068;51.990;5.926;2023-03-14T00:48:36;11.00;99.90
47336;DHT22;33068;51.990;5.926;2023-03-14T00:51:04;11.00;99.90
47336;DHT22;33068;51.990;5.926;2023-03-14T00:53:35;10.90;99.90
47336;DHT22;33068;51.990;5.926;2023-03-14T00:56:04;10.90;99.90
47336;DHT22;33068;51.990;5.926;2023-03-14T00:58:31;11.00;99.90
47336;DHT22;33068;51.990;5.926;2023-03-14T01:00:58;10.90;99.90
47336;DHT22;33068;51.990;5.926;2023-03-14T01:03:25;10.90;99.90
47336;DHT22;33068;51.990;5.926;2023-03-14T01:05:53;10.80;99.90
47336;DHT22;33068;51.990;5.926;2023-03-14T01:08:20;10.80;99.90
47336;DHT22;33068;51.990;5.926;2023-03-14T01:10:48;10.80;99.90
47336;DHT22;33068;51.990;5.926;2023-03-14T01:13:15;10.80;99.90
47336;DHT22;33068;51.990;5.926;2023-03-14T01:15:45;10.80;99.90
47336;DHT22;33068;51.990;5.926;2023-03-14T01:18:13;10.80;99.90
47336;DHT22;33068;51.990;5.926;2023-03-14T01:20:40;11.10;99.90
47336;DHT22;33068;51.990;5.926;2023-03-14T01:23:08;10.80;99.90
47336;DHT22;33068;51.990;5.926;2023-03-14T01:25:40;10.80;99.90
47336;DHT22;33068;51.990;5.926;2023-03-14T01:28:10;10.80;99.90
47336;DHT22;33068;51.990;5.926;2023-03-14T01:30:37;10.80;99.90
47336;DHT22;33068;51.990;5.926;2023-03-14T01:33:04;10.80;99.90
47336;DHT22;33068;51.990;5.926;2023-03-14T01:35:31;10.70;99.90
47336;DHT22;33068;51.990;5.926;2023-03-14T01:37:59;10.80;99.90
47336;DHT22;33068;51.990;5.926;2023-03-14T01:40:26;10.80;99.90
47336;DHT22;33068;51.990;5.926;2023-03-14T01:42:57;10.80;99.90
47336;DHT22;33068;51.990;5.926;2023-03-14T01:48:36;10.70;99.90
47336;DHT22;33068;51.990;5.926;2023-03-14T01:51:05;10.70;99.90
47336;DHT22;33068;51.990;5.926;2023-03-14T01:53:34;10.60;99.90
47336;DHT22;33068;51.990;5.926;2023-03-14T01:56:02;10.50;99.90
47336;DHT22;33068;51.990;5.926;2023-03-14T01:58:31;10.50;99.90
47336;DHT22;33068;51.990;5.926;2023-03-14T02:01:02;10.40;99.90
47336;DHT22;33068;51.990;5.926;2023-03-14T02:03:36;10.30;99.90
47336;DHT22;33068;51.990;5.926;2023-03-14T02:06:07;10.10;99.90
47336;DHT22;33068;51.990;5.926;2023-03-14T02:08:37;9.90;99.90
47336;DHT22;33068;51.990;5.926;2023-03-14T02:11:12;9.90;99.90
47336;DHT22;33068;51.990;5.926;2023-03-14T02:13:49;9.80;99.90
47336;DHT22;33068;51.990;5.926;2023-03-14T02:16:34;9.70;99.90
47336;DHT22;33068;51.990;5.926;2023-03-14T02:22:45;9.50;99.90
47336;DHT22;33068;51.990;5.926;2023-03-14T02:25:21;9.40;99.90
47336;DHT22;33068;51.990;5.926;2023-03-14T02:27:52;9.40;99.90
47336;DHT22;33068;51.990;5.926;2023-03-14T02:30:20;9.30;99.90
47336;DHT22;33068;51.990;5.926;2023-03-14T02:32:52;9.30;99.90
47336;DHT22;33068;51.990;5.926;2023-03-14T02:35:23;9.30;99.90
47336;DHT22;33068;51.990;5.926;2023-03-14T02:37:54;9.30;99.90
47336;DHT22;33068;51.990;5.926;2023-03-14T02:40:23;9.20;99.90
47336;DHT22;33068;51.990;5.926;2023-03-14T02:42:58;9.20;99.90
47336;DHT22;33068;51.990;5.926;2023-03-14T02:45:43;9.10;99.90
47336;DHT22;33068;51.990;5.926;2023-03-14T02:48:17;9.10;99.90
47336;DHT22;33068;51.990;5.926;2023-03-14T02:50:47;9.10;99.90
47336;DHT22;33068;51.990;5.926;2023-03-14T02:53:18;9.10;99.90
47336;DHT22;33068;51.990;5.926;2023-03-14T02:55:46;9.10;99.90
47336;DHT22;33068;51.990;5.926;2023-03-14T02:58:18;9.10;99.90
47336;DHT22;33068;51.990;5.926;2023-03-14T03:00:52;9.10;99.90
47336;DHT22;33068;51.990;5.926;2023-03-14T03:03:19;9.10;99.90
47336;DHT22;33068;51.990;5.926;2023-03-14T03:05:49;9.10;99.90
47336;DHT22;33068;51.990;5.926;2023-03-14T03:08:18;9.10;99.90
47336;DHT22;33068;51.990;5.926;2023-03-14T03:10:46;9.10;99.90
47336;DHT22;33068;51.990;5.926;2023-03-14T03:13:14;9.10;99.90
47336;DHT22;33068;51.990;5.926;2023-03-14T03:15:43;9.20;99.90
47336;DHT22;33068;51.990;5.926;2023-03-14T03:18:11;9.10;99.90
47336;DHT22;33068;51.990;5.926;2023-03-14T03:20:38;9.10;99.90
47336;DHT22;33068;51.990;5.926;2023-03-14T03:23:06;9.00;99.90
47336;DHT22;33068;51.990;5.926;2023-03-14T03:25:33;9.00;99.90
47336;DHT22;33068;51.990;5.926;2023-03-14T03:28:03;9.00;99.90
47336;DHT22;33068;51.990;5.926;2023-03-14T03:30:38;9.00;99.90
47336;DHT22;33068;51.990;5.926;2023-03-14T03:33:09;9.00;99.90
47336;DHT22;33068;51.990;5.926;2023-03-14T03:35:42;9.00;99.90
47336;DHT22;33068;51.990;5.926;2023-03-14T03:38:11;9.00;99.90
47336;DHT22;33068;51.990;5.926;2023-03-14T03:40:39;9.10;99.90
47336;DHT22;33068;51.990;5.926;2023-03-14T03:43:07;9.10;99.90
47336;DHT22;33068;51.990;5.926;2023-03-14T03:45:37;9.10;99.90
47336;DHT22;33068;51.990;5.926;2023-03-14T03:48:07;9.10;99.90
47336;DHT22;33068;51.990;5.926;2023-03-14T03:50:34;9.10;99.90
47336;DHT22;33068;51.990;5.926;2023-03-14T03:53:01;9.20;99.90
47336;DHT22;33068;51.990;5.926;2023-03-14T03:55:28;9.20;99.90
47336;DHT22;33068;51.990;5.926;2023-03-14T03:57:55;9.20;99.90
47336;DHT22;33068;51.990;5.926;2023-03-14T04:00:24;9.20;99.90
47336;DHT22;33068;51.990;5.926;2023-03-14T04:02:51;9.20;99.90
47336;DHT22;33068;51.990;5.926;2023-03-14T04:05:20;9.20;99.90
47336;DHT22;33068;51.990;5.926;2023-03-14T04:07:54;9.20;99.90
47336;DHT22;33068;51.990;5.926;2023-03-14T04:10:24;9.30;99.90
47336;DHT22;33068;51.990;5.926;2023-03-14T04:13:10;9.30;99.90
47336;DHT22;33068;51.990;5.926;2023-03-14T04:15:39;9.40;99.90
47336;DHT22;33068;51.990;5.926;2023-03-14T04:18:27;9.40;99.90
47336;DHT22;33068;51.990;5.926;2023-03-14T04:20:58;9.40;99.90
47336;DHT22;33068;51.990;5.926;2023-03-14T04:23:34;9.40;99.90
47336;DHT22;33068;51.990;5.926;2023-03-14T04:26:01;9.40;99.90
47336;DHT22;33068;51.990;5.926;2023-03-14T04:28:31;9.50;99.90
47336;DHT22;33068;51.990;5.926;2023-03-14T04:30:58;9.50;99.90
47336;DHT22;33068;51.990;5.926;2023-03-14T04:33:28;9.60;99.90
47336;DHT22;33068;51.990;5.926;2023-03-14T04:35:57;9.60;99.90
47336;DHT22;33068;51.990;5.926;2023-03-14T04:38:25;9.60;99.90
47336;DHT22;33068;51.990;5.926;2023-03-14T04:40:53;9.50;99.90
47336;DHT22;33068;51.990;5.926;2023-03-14T04:43:27;9.50;99.90
47336;DHT22;33068;51.990;5.926;2023-03-14T04:46:00;9.50;99.90
47336;DHT22;33068;51.990;5.926;2023-03-14T04:48:28;9.50;99.90
47336;DHT22;33068;51.990;5.926;2023-03-14T04:50:57;9.50;99.90
47336;DHT22;33068;51.990;5.926;2023-03-14T04:53:29;9.70;99.90
47336;DHT22;33068;51.990;5.926;2023-03-14T04:55:58;9.60;99.90
47336;DHT22;33068;51.990;5.926;2023-03-14T04:58:32;9.70;99.90
47336;DHT22;33068;51.990;5.926;2023-03-14T05:01:02;9.60;99.90
47336;DHT22;33068;51.990;5.926;2023-03-14T05:03:38;9.70;99.90
47336;DHT22;33068;51.990;5.926;2023-03-14T05:06:27;9.70;99.90
47336;DHT22;33068;51.990;5.926;2023-03-14T05:09:03;9.90;99.90
47336;DHT22;33068;51.990;5.926;2023-03-14T05:11:31;9.70;99.90
47336;DHT22;33068;51.990;5.926;2023-03-14T05:14:08;9.60;99.90
47336;DHT22;33068;51.990;5.926;2023-03-14T05:16:43;9.60;99.90
47336;DHT22;33068;51.990;5.926;2023-03-14T05:19:25;9.50;99.90
47336;DHT22;33068;51.990;5.926;2023-03-14T05:22:06;9.50;99.90
47336;DHT22;33068;51.990;5.926;2023-03-14T05:24:45;9.60;99.90
47336;DHT22;33068;51.990;5.926;2023-03-14T05:27:31;9.50;99.90
47336;DHT22;33068;51.990;5.926;2023-03-14T05:30:25;9.50;99.90
47336;DHT22;33068;51.990;5.926;2023-03-14T05:33:16;9.50;99.90
47336;DHT22;33068;51.990;5.926;2023-03-14T05:36:10;9.50;99.90
47336;DHT22;33068;51.990;5.926;2023-03-14T05:38:38;9.50;99.90
47336;DHT22;33068;51.990;5.926;2023-03-14T05:41:38;9.50;99.90
47336;DHT22;33068;51.990;5.926;2023-03-14T05:44:26;9.50;99.90
47336;DHT22;33068;51.990;5.926;2023-03-14T05:47:12;9.50;99.90
47336;DHT22;33068;51.990;5.926;2023-03-14T05:49:58;9.40;99.90
47336;DHT22;33068;51.990;5.926;2023-03-14T05:53:00;9.40;99.90
47336;DHT22;33068;51.990;5.926;2023-03-14T05:55:54;9.40;99.90
47336;DHT22;33068;51.990;5.926;2023-03-14T06:02:08;9.40;99.90
47336;DHT22;33068;51.990;5.926;2023-03-14T06:04:53;9.10;99.90
47336;DHT22;33068;51.990;5.926;2023-03-14T06:07:21;9.40;99.90
47336;DHT22;33068;51.990;5.926;2023-03-14T06:09:49;9.30;99.90
47336;DHT22;33068;51.990;5.926;2023-03-14T06:12:20;9.30;99.90
47336;DHT22;33068;51.990;5.926;2023-03-14T06:14:49;9.30;99.90
47336;DHT22;33068;51.990;5.926;2023-03-14T06:17:20;9.30;99.90
47336;DHT22;33068;51.990;5.926;2023-03-14T06:19:52;9.30;99.90
47336;DHT22;33068;51.990;5.926;2023-03-14T06:22:23;9.30;99.90
47336;DHT22;33068;51.990;5.926;2023-03-14T06:24:50;9.30;99.90
47336;DHT22;33068;51.990;5.926;2023-03-14T06:27:19;9.30;99.90
47336;DHT22;33068;51.990;5.926;2023-03-14T06:29:47;9.30;99.90
47336;DHT22;33068;51.990;5.926;2023-03-14T06:32:14;9.30;99.90
47336;DHT22;33068;51.990;5.926;2023-03-14T06:34:42;9.30;99.90
47336;DHT22;33068;51.990;5.926;2023-03-14T06:37:09;9.20;99.90
47336;DHT22;33068;51.990;5.926;2023-03-14T06:39:37;9.30;99.90
47336;DHT22;33068;51.990;5.926;2023-03-14T06:42:12;9.30;99.90
47336;DHT22;33068;51.990;5.926;2023-03-14T06:44:43;9.30;99.90
47336;DHT22;33068;51.990;5.926;2023-03-14T06:47:10;9.30;99.90
47336;DHT22;33068;51.990;5.926;2023-03-14T06:49:49;9.30;99.90
47336;DHT22;33068;51.990;5.926;2023-03-14T06:52:22;9.30;99.90
47336;DHT22;33068;51.990;5.926;2023-03-14T06:54:51;9.30;99.90
47336;DHT22;33068;51.990;5.926;2023-03-14T06:57:26;9.30;99.90
47336;DHT22;33068;51.990;5.926;2023-03-14T07:03:19;9.30;99.90
47336;DHT22;33068;51.990;5.926;2023-03-14T07:05:49;9.40;99.90
47336;DHT22;33068;51.990;5.926;2023-03-14T07:08:24;9.40;99.90
47336;DHT22;33068;51.990;5.926;2023-03-14T07:10:52;9.70;99.90
47336;DHT22;33068;51.990;5.926;2023-03-14T07:13:19;9.50;99.90
47336;DHT22;33068;51.990;5.926;2023-03-14T07:15:53;9.50;99.90
47336;DHT22;33068;51.990;5.926;2023-03-14T07:18:30;9.60;99.90
47336;DHT22;33068;51.990;5.926;2023-03-14T07:20:57;9.60;99.90
47336;DHT22;33068;51.990;5.926;2023-03-14T07:23:27;9.60;99.90
47336;DHT22;33068;51.990;5.926;2023-03-14T07:25:55;9.60;99.90
47336;DHT22;33068;51.990;5.926;2023-03-14T07:28:24;9.60;99.90
47336;DHT22;33068;51.990;5.926;2023-03-14T07:30:59;9.60;99.90
47336;DHT22;33068;51.990;5.926;2023-03-14T07:33:32;9.50;99.90
47336;DHT22;33068;51.990;5.926;2023-03-14T07:36:00;9.50;99.90
47336;DHT22;33068;51.990;5.926;2023-03-14T07:38:28;9.20;99.90
47336;DHT22;33068;51.990;5.926;2023-03-14T07:41:15;9.20;99.90
47336;DHT22;33068;51.990;5.926;2023-03-14T07:44:02;9.20;99.90
47336;DHT22;33068;51.990;5.926;2023-03-14T07:46:30;9.20;99.90
47336;DHT22;33068;51.990;5.926;2023-03-14T07:48:58;8.90;99.90
47336;DHT22;33068;51.990;5.926;2023-03-14T07:51:25;9.00;99.90
47336;DHT22;33068;51.990;5.926;2023-03-14T07:53:55;8.90;99.90
47336;DHT22;33068;51.990;5.926;2023-03-14T07:56:22;8.90;99.90
47336;DHT22;33068;51.990;5.926;2023-03-14T07:58:49;8.40;99.90
47336;DHT22;33068;51.990;5.926;2023-03-14T08:01:16;8.30;99.90
47336;DHT22;33068;51.990;5.926;2023-03-14T08:03:44;8.20;99.90
47336;DHT22;33068;51.990;5.926;2023-03-14T08:06:12;8.20;99.90
47336;DHT22;33068;51.990;5.926;2023-03-14T08:08:40;8.00;99.90
47336;DHT22;33068;51.990;5.926;2023-03-14T08:11:07;7.80;99.90
47336;DHT22;33068;51.990;5.926;2023-03-14T08:13:36;7.90;99.90
47336;DHT22;33068;51.990;5.926;2023-03-14T08:16:04;7.90;99.90
47336;DHT22;33068;51.990;5.926;2023-03-14T08:18:31;7.90;99.90
47336;DHT22;33068;51.990;5.926;2023-03-14T08:20:59;7.90;99.90
47336;DHT22;33068;51.990;5.926;2023-03-14T08:23:27;7.90;99.90
47336;DHT22;33068;51.990;5.926;2023-03-14T08:25:56;7.90;99.90
47336;DHT22;33068;51.990;5.926;2023-03-14T08:28:24;7.90;99.90
47336;DHT22;33068;51.990;5.926;2023-03-14T08:30:56;7.90;99.90
47336;DHT22;33068;51.990;5.926;2023-03-14T08:33:23;8.00;99.90
47336;DHT22;33068;51.990;5.926;2023-03-14T08:35:52;8.00;99.90
47336;DHT22;33068;51.990;5.926;2023-03-14T08:38:20;8.10;99.90
47336;DHT22;33068;51.990;5.926;2023-03-14T08:40:50;8.00;99.90
47336;DHT22;33068;51.990;5.926;2023-03-14T08:43:21;7.60;99.90
47336;DHT22;33068;51.990;5.926;2023-03-14T08:45:48;7.80;99.90
47336;DHT22;33068;51.990;5.926;2023-03-14T08:48:16;7.80;99.90
47336;DHT22;33068;51.990;5.926;2023-03-14T08:50:43;7.80;99.90
47336;DHT22;33068;51.990;5.926;2023-03-14T08:53:10;7.60;99.90
47336;DHT22;33068;51.990;5.926;2023-03-14T08:55:37;7.50;99.90
47336;DHT22;33068;51.990;5.926;2023-03-14T08:58:08;7.40;99.90
47336;DHT22;33068;51.990;5.926;2023-03-14T09:00:35;6.90;99.90
47336;DHT22;33068;51.990;5.926;2023-03-14T09:03:03;7.10;99.90
47336;DHT22;33068;51.990;5.926;2023-03-14T09:05:32;7.10;99.90
47336;DHT22;33068;51.990;5.926;2023-03-14T09:07:59;7.10;99.90
47336;DHT22;33068;51.990;5.926;2023-03-14T09:10:27;7.00;99.90
47336;DHT22;33068;51.990;5.926;2023-03-14T09:12:54;7.10;99.90
47336;DHT22;33068;51.990;5.926;2023-03-14T09:15:24;7.10;99.90
47336;DHT22;33068;51.990;5.926;2023-03-14T09:17:51;7.10;99.90
47336;DHT22;33068;51.990;5.926;2023-03-14T09:20:18;7.00;99.90
47336;DHT22;33068;51.990;5.926;2023-03-14T09:22:47;7.00;99.90
47336;DHT22;33068;51.990;5.926;2023-03-14T09:25:15;6.80;99.90
47336;DHT22;33068;51.990;5.926;2023-03-14T09:27:44;6.80;99.90
47336;DHT22;33068;51.990;5.926;2023-03-14T09:30:12;6.70;99.90
47336;DHT22;33068;51.990;5.926;2023-03-14T09:32:42;6.80;99.90
47336;DHT22;33068;51.990;5.926;2023-03-14T09:35:09;6.80;99.90
47336;DHT22;33068;51.990;5.926;2023-03-14T09:37:36;6.90;99.90
47336;DHT22;33068;51.990;5.926;2023-03-14T09:40:04;7.00;99.90
47336;DHT22;33068;51.990;5.926;2023-03-14T09:42:37;7.20;99.90
47336;DHT22;33068;51.990;5.926;2023-03-14T09:45:09;7.50;99.90
47336;DHT22;33068;51.990;5.926;2023-03-14T09:47:37;7.40;99.90
47336;DHT22;33068;51.990;5.926;2023-03-14T09:50:11;7.50;99.90
47336;DHT22;33068;51.990;5.926;2023-03-14T09:52:40;7.40;99.90
47336;DHT22;33068;51.990;5.926;2023-03-14T09:55:12;7.50;99.90
47336;DHT22;33068;51.990;5.926;2023-03-14T09:57:49;7.60;99.90
47336;DHT22;33068;51.990;5.926;2023-03-14T10:00:29;7.70;99.90
47336;DHT22;33068;51.990;5.926;2023-03-14T10:03:22;7.70;99.90
47336;DHT22;33068;51.990;5.926;2023-03-14T10:05:52;7.70;99.90
47336;DHT22;33068;51.990;5.926;2023-03-14T10:08:21;7.60;99.90
47336;DHT22;33068;51.990;5.926;2023-03-14T10:10:48;7.60;99.90
47336;DHT22;33068;51.990;5.926;2023-03-14T10:13:22;7.70;99.90
47336;DHT22;33068;51.990;5.926;2023-03-14T10:15:58;8.00;99.90
47336;DHT22;33068;51.990;5.926;2023-03-14T10:18:25;7.90;99.90
47336;DHT22;33068;51.990;5.926;2023-03-14T10:21:06;7.90;99.90
47336;DHT22;33068;51.990;5.926;2023-03-14T10:23:37;7.90;99.90
47336;DHT22;33068;51.990;5.926;2023-03-14T10:26:12;8.00;99.90
47336;DHT22;33068;51.990;5.926;2023-03-14T10:28:47;7.90;99.90
47336;DHT22;33068;51.990;5.926;2023-03-14T10:31:17;7.90;99.90
47336;DHT22;33068;51.990;5.926;2023-03-14T10:33:59;8.00;99.90
47336;DHT22;33068;51.990;5.926;2023-03-14T10:36:31;8.00;99.90
47336;DHT22;33068;51.990;5.926;2023-03-14T10:39:22;8.00;99.90
47336;DHT22;33068;51.990;5.926;2023-03-14T10:41:55;8.20;99.90
47336;DHT22;33068;51.990;5.926;2023-03-14T10:47:23;8.00;99.90
47336;DHT22;33068;51.990;5.926;2023-03-14T10:50:21;8.00;99.90
47336;DHT22;33068;51.990;5.926;2023-03-14T10:52:52;7.90;99.90
47336;DHT22;33068;51.990;5.926;2023-03-14T10:55:20;8.00;99.90
47336;DHT22;33068;51.990;5.926;2023-03-14T10:57:47;8.00;99.90
47336;DHT22;33068;51.990;5.926;2023-03-14T11:00:15;7.90;99.90
47336;DHT22;33068;51.990;5.926;2023-03-14T11:03:01;7.80;99.90
47336;DHT22;33068;51.990;5.926;2023-03-14T11:05:34;7.70;99.90
47336;DHT22;33068;51.990;5.926;2023-03-14T11:08:08;7.60;99.90
47336;DHT22;33068;51.990;5.926;2023-03-14T11:10:38;7.30;99.90
47336;DHT22;33068;51.990;5.926;2023-03-14T11:13:18;7.20;99.90
47336;DHT22;33068;51.990;5.926;2023-03-14T11:15:57;7.30;99.90
47336;DHT22;33068;51.990;5.926;2023-03-14T11:18:48;7.40;99.90
47336;DHT22;33068;51.990;5.926;2023-03-14T11:21:21;7.60;99.90
47336;DHT22;33068;51.990;5.926;2023-03-14T11:24:01;7.90;99.90
47336;DHT22;33068;51.990;5.926;2023-03-14T11:26:37;8.00;99.90
47336;DHT22;33068;51.990;5.926;2023-03-14T11:29:18;7.90;99.90
47336;DHT22;33068;51.990;5.926;2023-03-14T11:31:46;7.50;99.90
47336;DHT22;33068;51.990;5.926;2023-03-14T11:34:17;7.40;99.90
47336;DHT22;33068;51.990;5.926;2023-03-14T11:36:52;7.40;99.90
47336;DHT22;33068;51.990;5.926;2023-03-14T11:39:21;7.20;99.90
47336;DHT22;33068;51.990;5.926;2023-03-14T11:41:52;7.30;99.90
47336;DHT22;33068;51.990;5.926;2023-03-14T11:44:24;7.40;99.90
47336;DHT22;33068;51.990;5.926;2023-03-14T11:46:56;7.60;99.90
47336;DHT22;33068;51.990;5.926;2023-03-14T11:49:31;7.70;99.90
47336;DHT22;33068;51.990;5.926;2023-03-14T11:52:04;7.70;99.90
47336;DHT22;33068;51.990;5.926;2023-03-14T11:54:40;7.80;99.90
47336;DHT22;33068;51.990;5.926;2023-03-14T11:57:14;7.90;99.90
47336;DHT22;33068;51.990;5.926;2023-03-14T11:59:50;8.20;99.90
47336;DHT22;33068;51.990;5.926;2023-03-14T12:02:25;8.50;99.90
47336;DHT22;33068;51.990;5.926;2023-03-14T12:08:46;9.00;99.90
47336;DHT22;33068;51.990;5.926;2023-03-14T12:11:25;9.40;99.90
47336;DHT22;33068;51.990;5.926;2023-03-14T12:13:56;9.20;99.90
47336;DHT22;33068;51.990;5.926;2023-03-14T12:16:41;8.80;99.90
47336;DHT22;33068;51.990;5.926;2023-03-14T12:19:33;8.80;99.90
47336;DHT22;33068;51.990;5.926;2023-03-14T12:22:23;8.60;99.90
47336;DHT22;33068;51.990;5.926;2023-03-14T12:24:54;8.30;99.90
47336;DHT22;33068;51.990;5.926;2023-03-14T12:27:49;8.40;99.90
47336;DHT22;33068;51.990;5.926;2023-03-14T12:30:30;8.70;99.90
47336;DHT22;33068;51.990;5.926;2023-03-14T12:33:31;9.10;99.90
47336;DHT22;33068;51.990;5.926;2023-03-14T12:36:03;9.80;99.90
47336;DHT22;33068;51.990;5.926;2023-03-14T12:38:51;9.90;99.90
47336;DHT22;33068;51.990;5.926;2023-03-14T12:41:22;9.90;98.40
47336;DHT22;33068;51.990;5.926;2023-03-14T12:43:51;9.90;98.00
47336;DHT22;33068;51.990;5.926;2023-03-14T12:46:23;10.20;95.90
47336;DHT22;33068;51.990;5.926;2023-03-14T12:48:56;9.60;97.50
47336;DHT22;33068;51.990;5.926;2023-03-14T12:51:30;9.90;96.70
47336;DHT22;33068;51.990;5.926;2023-03-14T12:54:28;9.70;96.20
47336;DHT22;33068;51.990;5.926;2023-03-14T12:57:13;9.70;96.90
47336;DHT22;33068;51.990;5.926;2023-03-14T12:59:48;9.90;94.90
47336;DHT22;33068;51.990;5.926;2023-03-14T13:02:25;9.90;97.00
47336;DHT22;33068;51.990;5.926;2023-03-14T13:05:02;10.20;96.80
47336;DHT22;33068;51.990;5.926;2023-03-14T13:07:35;10.30;95.90
47336;DHT22;33068;51.990;5.926;2023-03-14T13:10:19;10.30;93.60
47336;DHT22;33068;51.990;5.926;2023-03-14T13:12:50;10.50;96.00
47336;DHT22;33068;51.990;5.926;2023-03-14T13:15:28;10.50;93.00
47336;DHT22;33068;51.990;5.926;2023-03-14T13:18:01;10.30;93.50
47336;DHT22;33068;51.990;5.926;2023-03-14T13:20:34;10.30;95.40
47336;DHT22;33068;51.990;5.926;2023-03-14T13:23:02;10.30;93.90
47336;DHT22;33068;51.990;5.926;2023-03-14T13:25:31;10.70;93.90
47336;DHT22;33068;51.990;5.926;2023-03-14T13:28:02;10.60;90.30
47336;DHT22;33068;51.990;5.926;2023-03-14T13:30:39;10.40;91.30
47336;DHT22;33068;51.990;5.926;2023-03-14T13:33:06;10.20;92.50
47336;DHT22;33068;51.990;5.926;2023-03-14T13:35:40;10.00;92.10
47336;DHT22;33068;51.990;5.926;2023-03-14T13:38:18;10.00;91.90
47336;DHT22;33068;51.990;5.926;2023-03-14T13:40:47;9.80;91.50
47336;DHT22;33068;51.990;5.926;2023-03-14T13:43:17;10.00;93.60
47336;DHT22;33068;51.990;5.926;2023-03-14T13:45:56;9.80;93.80
47336;DHT22;33068;51.990;5.926;2023-03-14T13:48:26;10.00;93.50
47336;DHT22;33068;51.990;5.926;2023-03-14T13:50:56;9.80;91.90
47336;DHT22;33068;51.990;5.926;2023-03-14T13:53:28;9.90;90.90
47336;DHT22;33068;51.990;5.926;2023-03-14T13:55:55;9.90;91.00
47336;DHT22;33068;51.990;5.926;2023-03-14T13:58:25;10.00;93.60
47336;DHT22;33068;51.990;5.926;2023-03-14T14:01:14;10.00;92.10
47336;DHT22;33068;51.990;5.926;2023-03-14T14:03:44;10.10;90.70
47336;DHT22;33068;51.990;5.926;2023-03-14T14:06:25;10.20;91.60
47336;DHT22;33068;51.990;5.926;2023-03-14T14:08:53;10.50;89.10
47336;DHT22;33068;51.990;5.926;2023-03-14T14:11:32;10.40;91.50
47336;DHT22;33068;51.990;5.926;2023-03-14T14:14:01;10.20;89.40
47336;DHT22;33068;51.990;5.926;2023-03-14T14:16:30;10.00;88.20
47336;DHT22;33068;51.990;5.926;2023-03-14T14:18:59;9.60;91.70
47336;DHT22;33068;51.990;5.926;2023-03-14T14:21:27;9.40;92.50
47336;DHT22;33068;51.990;5.926;2023-03-14T14:23:54;9.20;92.40
47336;DHT22;33068;51.990;5.926;2023-03-14T14:26:21;9.00;92.20
47336;DHT22;33068;51.990;5.926;2023-03-14T14:28:59;8.80;93.10
47336;DHT22;33068;51.990;5.926;2023-03-14T14:31:33;8.90;93.10
47336;DHT22;33068;51.990;5.926;2023-03-14T14:34:03;9.00;91.20
47336;DHT22;33068;51.990;5.926;2023-03-14T14:36:32;9.20;93.00
47336;DHT22;33068;51.990;5.926;2023-03-14T14:39:05;9.40;92.30
47336;DHT22;33068;51.990;5.926;2023-03-14T14:41:40;9.60;91.00
47336;DHT22;33068;51.990;5.926;2023-03-14T14:44:12;9.60;90.80
47336;DHT22;33068;51.990;5.926;2023-03-14T14:46:44;9.80;88.90
47336;DHT22;33068;51.990;5.926;2023-03-14T14:49:13;9.80;89.20
47336;DHT22;33068;51.990;5.926;2023-03-14T14:51:43;9.60;86.10
47336;DHT22;33068;51.990;5.926;2023-03-14T14:54:14;9.40;90.00
47336;DHT22;33068;51.990;5.926;2023-03-14T14:56:46;8.80;89.90
47336;DHT22;33068;51.990;5.926;2023-03-14T14:59:23;8.70;90.40
47336;DHT22;33068;51.990;5.926;2023-03-14T15:01:55;8.80;90.30
47336;DHT22;33068;51.990;5.926;2023-03-14T15:04:23;8.80;89.90
47336;DHT22;33068;51.990;5.926;2023-03-14T15:06:52;8.80;88.80
47336;DHT22;33068;51.990;5.926;2023-03-14T15:09:19;8.70;86.80
47336;DHT22;33068;51.990;5.926;2023-03-14T15:11:47;8.60;86.00
47336;DHT22;33068;51.990;5.926;2023-03-14T15:14:14;8.50;89.10
47336;DHT22;33068;51.990;5.926;2023-03-14T15:16:41;8.50;86.40
47336;DHT22;33068;51.990;5.926;2023-03-14T15:19:15;8.30;86.60
47336;DHT22;33068;51.990;5.926;2023-03-14T15:21:43;8.10;90.10
47336;DHT22;33068;51.990;5.926;2023-03-14T15:24:10;7.80;90.00
47336;DHT22;33068;51.990;5.926;2023-03-14T15:26:38;8.00;88.50
47336;DHT22;33068;51.990;5.926;2023-03-14T15:29:05;8.00;89.30
47336;DHT22;33068;51.990;5.926;2023-03-14T15:31:34;7.90;90.00
47336;DHT22;33068;51.990;5.926;2023-03-14T15:34:04;7.80;91.00
47336;DHT22;33068;51.990;5.926;2023-03-14T15:36:33;7.60;91.30
47336;DHT22;33068;51.990;5.926;2023-03-14T15:39:01;7.60;91.80
47336;DHT22;33068;51.990;5.926;2023-03-14T15:41:29;7.70;91.70
47336;DHT22;33068;51.990;5.926;2023-03-14T15:43:59;7.70;92.20
47336;DHT22;33068;51.990;5.926;2023-03-14T15:46:29;7.60;92.20
47336;DHT22;33068;51.990;5.926;2023-03-14T15:48:58;7.40;93.20
47336;DHT22;33068;51.990;5.926;2023-03-14T15:51:25;7.30;92.10
47336;DHT22;33068;51.990;5.926;2023-03-14T15:53:54;7.30;94.10
47336;DHT22;33068;51.990;5.926;2023-03-14T15:56:21;7.40;94.20
47336;DHT22;33068;51.990;5.926;2023-03-14T15:58:50;7.40;96.40
47336;DHT22;33068;51.990;5.926;2023-03-14T16:01:19;7.40;94.70
47336;DHT22;33068;51.990;5.926;2023-03-14T16:03:51;7.30;95.50
47336;DHT22;33068;51.990;5.926;2023-03-14T16:06:18;7.30;96.50
47336;DHT22;33068;51.990;5.926;2023-03-14T16:12:23;7.10;96.20
47336;DHT22;33068;51.990;5.926;2023-03-14T16:14:50;7.10;96.40
47336;DHT22;33068;51.990;5.926;2023-03-14T16:17:21;7.00;95.50
47336;DHT22;33068;51.990;5.926;2023-03-14T16:19:55;6.90;96.70
47336;DHT22;33068;51.990;5.926;2023-03-14T16:22:23;6.80;96.80
47336;DHT22;33068;51.990;5.926;2023-03-14T16:24:50;6.80;96.50
47336;DHT22;33068;51.990;5.926;2023-03-14T16:27:17;6.80;97.70
47336;DHT22;33068;51.990;5.926;2023-03-14T16:29:45;6.70;98.90
47336;DHT22;33068;51.990;5.926;2023-03-14T16:32:13;6.80;97.40
47336;DHT22;33068;51.990;5.926;2023-03-14T16:34:40;6.70;96.50
47336;DHT22;33068;51.990;5.926;2023-03-14T16:37:08;6.70;96.70